Time;durP1;ratioP1;P1;durP2;ratioP2;P2;SDS_P1;SDS_P2;PMS_P1;PMS_P2;Temp;Humidity;BMP_temperature;BMP_pressure;BME280_temperature;BME280_humidity;BME280_pressure;Samples;Min_cycle;Max_cycle;Signal;HPM_P1;HPM_P2
2020/12/31 00:00:40;;;;;;;3.30;3.00;;;9.40;58.60;;;;;;5032084;28;20197;-42
2020/12/31 00:03:06;;;;;;;3.13;2.90;;;9.30;58.20;;;;;;5031937;28;20221;-42
2020/12/31 00:05:32;;;;;;;4.00;3.60;;;9.40;58.40;;;;;;5032285;28;20288;-42
2020/12/31 00:07:57;;;;;;;3.90;3.17;;;9.40;58.20;;;;;;5031624;28;20265;-42
2020/12/31 00:10:23;;;;;;;2.97;2.77;;;9.40;58.10;;;;;;5031914;28;20237;-42
2020/12/31 00:12:48;;;;;;;2.97;2.73;;;9.10;58.50;;;;;;5032354;28;20315;-42
2020/12/31 00:15:14;;;;;;;3.47;3.17;;;9.10;59.00;;;;;;5032222;28;20208;-42
2020/12/31 00:17:39;;;;;;;3.63;3.33;;;9.20;59.10;;;;;;5031931;28;20263;-42
2020/12/31 00:20:07;;;;;;;3.93;3.60;;;9.20;59.00;;;;;;5031748;28;20603;-43
2020/12/31 00:22:32;;;;;;;5.80;3.70;;;9.20;59.10;;;;;;5029897;28;20232;-42
2020/12/31 00:24:58;;;;;;;3.73;3.33;;;9.30;58.90;;;;;;5031896;28;20494;-42
2020/12/31 00:27:24;;;;;;;4.07;3.67;;;9.30;58.70;;;;;;5031430;28;20200;-42
2020/12/31 00:29:49;;;;;;;4.40;3.53;;;9.40;58.60;;;;;;5031454;28;20240;-42
2020/12/31 00:32:15;;;;;;;4.63;3.63;;;9.40;58.40;;;;;;5031373;28;20606;-43
2020/12/31 00:34:41;;;;;;;4.07;3.77;;;9.40;59.10;;;;;;5031912;28;20223;-42
2020/12/31 00:37:06;;;;;;;4.43;4.03;;;9.40;58.60;;;;;;5031423;28;20537;-42
2020/12/31 00:39:32;;;;;;;4.00;3.67;;;9.30;58.70;;;;;;5031212;28;20192;-42
2020/12/31 00:41:57;;;;;;;4.90;4.40;;;9.10;59.00;;;;;;5030945;28;20189;-42
2020/12/31 00:44:23;;;;;;;4.20;3.50;;;8.90;59.20;;;;;;5031731;28;20193;-42
2020/12/31 00:46:49;;;;;;;3.90;3.60;;;9.00;59.30;;;;;;5028092;28;20328;-42
2020/12/31 00:49:15;;;;;;;3.53;3.23;;;9.10;58.80;;;;;;5029867;28;20192;-42
2020/12/31 00:51:40;;;;;;;3.87;3.30;;;9.10;58.70;;;;;;5030451;28;20427;-42
2020/12/31 00:54:06;;;;;;;5.47;4.17;;;9.10;58.50;;;;;;5031508;28;20581;-42
2020/12/31 00:56:32;;;;;;;4.53;3.83;;;9.00;58.50;;;;;;5031263;28;20196;-42
2020/12/31 00:58:57;;;;;;;3.60;3.30;;;9.00;58.90;;;;;;5031181;28;20197;-42
2020/12/31 01:01:23;;;;;;;4.00;3.40;;;9.00;58.90;;;;;;5031263;28;20264;-42
2020/12/31 01:03:48;;;;;;;4.47;3.80;;;9.10;58.90;;;;;;5030647;28;20653;-42
2020/12/31 01:06:14;;;;;;;3.77;3.37;;;9.10;58.50;;;;;;5031219;28;20201;-42
2020/12/31 01:08:40;;;;;;;4.30;3.90;;;9.20;58.50;;;;;;5030507;28;20271;-42
2020/12/31 01:11:05;;;;;;;4.20;3.80;;;9.20;58.50;;;;;;5030775;28;20227;-42
2020/12/31 01:13:31;;;;;;;5.10;3.50;;;9.20;58.50;;;;;;5030753;28;20247;-42
2020/12/31 01:15:57;;;;;;;4.47;4.07;;;9.30;58.40;;;;;;5029749;28;20460;-42
2020/12/31 01:18:23;;;;;;;3.97;3.67;;;9.10;57.90;;;;;;5030458;28;20606;-42
2020/12/31 01:20:48;;;;;;;3.50;3.20;;;9.10;58.40;;;;;;5030923;28;20653;-42
2020/12/31 01:23:14;;;;;;;4.20;3.80;;;9.10;58.40;;;;;;5030446;28;20539;-42
2020/12/31 01:25:39;;;;;;;4.33;3.80;;;9.20;58.40;;;;;;5031208;28;20197;-43
2020/12/31 01:28:05;;;;;;;4.97;4.07;;;9.20;58.20;;;;;;5030585;28;20185;-42
2020/12/31 01:30:31;;;;;;;4.73;4.20;;;9.20;58.00;;;;;;5030268;28;20260;-42
2020/12/31 01:32:57;;;;;;;4.70;4.30;;;9.00;58.30;;;;;;5030420;28;20284;-42
2020/12/31 01:35:23;;;;;;;5.20;3.73;;;9.00;58.60;;;;;;5031175;28;20255;-42
2020/12/31 01:37:49;;;;;;;4.13;3.77;;;9.00;58.90;;;;;;5030422;28;20431;-42
2020/12/31 01:40:15;;;;;;;4.23;3.83;;;9.10;58.90;;;;;;5030359;28;20261;-42
2020/12/31 01:42:41;;;;;;;5.80;4.07;;;8.90;58.60;;;;;;5028922;28;20212;-42
2020/12/31 01:45:08;;;;;;;6.00;3.83;;;9.00;58.70;;;;;;5031275;28;20193;-42
2020/12/31 01:47:34;;;;;;;4.10;3.80;;;9.10;58.40;;;;;;5027188;28;20498;-42
2020/12/31 01:50:00;;;;;;;4.87;3.70;;;9.10;58.20;;;;;;5029993;28;20519;-42
2020/12/31 01:52:27;;;;;;;5.37;3.77;;;9.10;57.90;;;;;;5030260;28;20424;-42
2020/12/31 01:54:53;;;;;;;3.57;3.27;;;9.10;57.60;;;;;;5034018;28;20503;-42
2020/12/31 01:57:18;;;;;;;4.33;3.93;;;9.20;57.50;;;;;;5034746;28;20475;-42
2020/12/31 01:59:45;;;;;;;3.70;3.40;;;9.10;57.20;;;;;;5034425;28;20193;-42
2020/12/31 02:02:10;;;;;;;4.10;3.70;;;9.00;57.10;;;;;;5034232;28;20197;-42
2020/12/31 02:04:37;;;;;;;4.70;3.90;;;9.00;57.20;;;;;;5034722;28;20431;-42
2020/12/31 02:07:03;;;;;;;4.50;4.10;;;9.00;57.30;;;;;;5033838;28;20232;-42
2020/12/31 02:09:30;;;;;;;3.80;3.50;;;8.80;57.30;;;;;;5032425;28;20471;-42
2020/12/31 02:12:00;;;;;;;3.43;3.13;;;8.70;57.70;;;;;;5033905;28;20719;-42
2020/12/31 02:14:26;;;;;;;4.60;4.00;;;8.60;57.80;;;;;;5034712;28;20462;-42
2020/12/31 02:16:52;;;;;;;4.37;3.97;;;8.30;58.20;;;;;;5034014;28;20428;-42
2020/12/31 02:19:17;;;;;;;5.33;3.40;;;8.20;58.50;;;;;;5034237;28;20196;-42
2020/12/31 02:21:48;;;;;;;3.47;3.17;;;8.30;58.90;;;;;;5033730;28;20519;-42
2020/12/31 02:24:14;;;;;;;6.30;3.90;;;8.30;58.50;;;;;;5034700;28;20555;-42
2020/12/31 02:26:41;;;;;;;3.97;3.60;;;8.30;58.30;;;;;;5033726;28;20423;-42
2020/12/31 02:29:08;;;;;;;3.57;3.27;;;8.40;57.90;;;;;;5034076;28;20885;-42
2020/12/31 02:31:34;;;;;;;4.87;3.60;;;8.50;57.70;;;;;;5033442;28;20537;-42
2020/12/31 02:34:01;;;;;;;4.63;3.40;;;8.60;57.20;;;;;;5034170;28;20486;-42
2020/12/31 02:36:29;;;;;;;3.90;3.23;;;8.50;57.00;;;;;;5032294;28;21129;-42
2020/12/31 02:38:56;;;;;;;4.03;3.60;;;8.60;57.00;;;;;;5033677;28;20490;-42
2020/12/31 02:41:23;;;;;;;3.97;3.50;;;8.50;56.80;;;;;;5034191;28;20455;-42
2020/12/31 02:43:48;;;;;;;3.47;2.83;;;8.60;56.40;;;;;;5033667;28;20511;-42
2020/12/31 02:46:15;;;;;;;3.80;3.43;;;8.60;56.10;;;;;;5029472;28;20515;-42
2020/12/31 02:48:41;;;;;;;3.53;3.07;;;8.60;56.10;;;;;;5033358;28;20193;-42
2020/12/31 02:51:07;;;;;;;3.93;3.30;;;8.50;55.20;;;;;;5033564;28;20479;-42
2020/12/31 02:53:33;;;;;;;4.43;3.67;;;8.50;55.30;;;;;;5033320;28;20424;-42
2020/12/31 02:56:00;;;;;;;3.83;3.07;;;8.60;55.50;;;;;;5033731;28;20435;-42
2020/12/31 02:58:25;;;;;;;3.53;3.23;;;8.70;55.70;;;;;;5033103;28;20193;-42
2020/12/31 03:00:51;;;;;;;3.83;2.80;;;8.70;55.70;;;;;;5033320;28;20493;-42
2020/12/31 03:03:17;;;;;;;3.60;3.30;;;8.70;55.50;;;;;;5031454;28;20201;-42
2020/12/31 03:05:43;;;;;;;3.63;3.20;;;8.70;55.60;;;;;;5032481;28;20193;-42
2020/12/31 03:08:09;;;;;;;4.00;3.70;;;8.70;55.70;;;;;;5032594;28;20586;-42
2020/12/31 03:10:35;;;;;;;5.80;3.40;;;8.70;55.80;;;;;;5033151;28;20676;-42
2020/12/31 03:13:00;;;;;;;4.40;3.97;;;8.70;55.90;;;;;;5032991;28;20428;-42
2020/12/31 03:15:26;;;;;;;3.90;3.40;;;8.60;55.60;;;;;;5033479;28;20699;-42
2020/12/31 03:17:51;;;;;;;3.00;2.80;;;8.60;55.60;;;;;;5032992;28;20235;-42
2020/12/31 03:20:17;;;;;;;3.67;3.37;;;8.60;55.60;;;;;;5033063;28;20276;-42
2020/12/31 03:22:43;;;;;;;3.73;3.20;;;8.60;55.60;;;;;;5032726;28;20189;-42
2020/12/31 03:25:09;;;;;;;4.10;3.67;;;8.60;55.50;;;;;;5033166;28;20280;-42
2020/12/31 03:27:35;;;;;;;3.13;2.70;;;8.60;55.50;;;;;;5032606;28;20200;-42
2020/12/31 03:30:01;;;;;;;4.43;3.73;;;8.60;55.50;;;;;;5031156;28;20975;-42
2020/12/31 03:32:27;;;;;;;3.40;3.10;;;8.30;55.60;;;;;;5032413;28;20201;-42
2020/12/31 03:34:52;;;;;;;3.83;3.47;;;8.30;55.80;;;;;;5033022;28;20514;-42
2020/12/31 03:37:18;;;;;;;3.73;3.23;;;8.30;55.60;;;;;;5032668;28;20223;-42
2020/12/31 03:39:44;;;;;;;3.77;3.20;;;8.30;55.50;;;;;;5032331;28;20264;-42
2020/12/31 03:42:10;;;;;;;3.30;3.00;;;8.30;55.40;;;;;;5032442;28;20276;-42
2020/12/31 03:44:35;;;;;;;4.03;3.20;;;8.30;55.70;;;;;;5032735;28;20185;-42
2020/12/31 03:47:02;;;;;;;3.40;3.10;;;8.30;55.10;;;;;;5029461;28;20962;-42
2020/12/31 03:49:28;;;;;;;3.20;2.90;;;8.30;55.10;;;;;;5032084;28;20239;-42
2020/12/31 03:51:53;;;;;;;3.80;3.47;;;8.40;55.10;;;;;;5032526;28;20424;-42
2020/12/31 03:54:19;;;;;;;10.60;3.17;;;8.40;55.10;;;;;;5032842;28;20198;-42
2020/12/31 03:56:45;;;;;;;3.40;3.00;;;8.40;55.10;;;;;;5030529;28;20189;-42
2020/12/31 03:59:10;;;;;;;4.10;2.70;;;8.40;54.80;;;;;;5031959;28;20243;-42
2020/12/31 04:01:36;;;;;;;4.00;3.30;;;8.40;54.70;;;;;;5031990;28;20200;-42
2020/12/31 04:04:03;;;;;;;4.23;3.20;;;8.40;54.60;;;;;;5032410;28;20220;-42
2020/12/31 04:06:29;;;;;;;4.30;2.93;;;8.40;54.80;;;;;;5032562;28;20209;-42
2020/12/31 04:08:55;;;;;;;3.33;3.03;;;8.30;54.80;;;;;;5031437;28;20471;-42
2020/12/31 04:11:21;;;;;;;3.33;3.03;;;8.30;54.90;;;;;;5032073;28;20490;-42
2020/12/31 04:13:47;;;;;;;3.00;2.80;;;8.30;54.70;;;;;;5031577;28;20228;-42
2020/12/31 04:16:13;;;;;;;2.80;2.50;;;8.30;54.80;;;;;;5031750;28;20564;-42
2020/12/31 04:18:38;;;;;;;3.40;3.10;;;8.20;54.70;;;;;;5031554;28;20931;-42
2020/12/31 04:21:04;;;;;;;3.70;2.57;;;8.20;54.60;;;;;;5031850;28;20193;-42
2020/12/31 04:23:30;;;;;;;2.80;2.43;;;8.20;54.60;;;;;;5029925;28;20204;-42
2020/12/31 04:25:55;;;;;;;3.00;2.80;;;8.20;54.50;;;;;;5032106;28;20185;-42
2020/12/31 04:28:21;;;;;;;3.30;3.00;;;8.20;54.40;;;;;;5031615;28;20201;-42
2020/12/31 04:30:48;;;;;;;4.03;3.07;;;8.20;54.30;;;;;;5031503;28;20236;-42
2020/12/31 04:33:15;;;;;;;3.43;3.13;;;8.20;54.50;;;;;;5031131;28;20205;-42
2020/12/31 04:35:41;;;;;;;3.23;2.93;;;8.20;54.60;;;;;;5032086;28;20420;-42
2020/12/31 04:38:06;;;;;;;3.60;2.83;;;8.20;54.70;;;;;;5031466;28;20483;-42
2020/12/31 04:40:33;;;;;;;3.47;3.17;;;8.20;54.60;;;;;;5031453;28;20275;-42
2020/12/31 04:42:59;;;;;;;3.97;3.57;;;8.10;54.60;;;;;;5030895;28;20442;-42
2020/12/31 04:45:28;;;;;;;3.40;3.10;;;8.10;54.60;;;;;;5029639;28;20508;-42
2020/12/31 04:48:23;;;;;;;3.40;3.10;;;8.00;54.70;;;;;;5018161;28;20415;-42
2020/12/31 04:50:49;;;;;;;5.30;2.80;;;8.00;54.70;;;;;;5028568;28;20526;-42
2020/12/31 04:53:15;;;;;;;3.40;3.10;;;8.10;54.80;;;;;;5031145;28;20790;-42
2020/12/31 04:55:43;;;;;;;4.00;3.60;;;7.90;55.10;;;;;;5031542;28;20189;-42
2020/12/31 04:58:11;;;;;;;3.20;2.90;;;7.80;55.70;;;;;;5031332;28;20663;-42
2020/12/31 05:00:37;;;;;;;3.97;3.17;;;7.80;56.00;;;;;;5031028;28;20862;-42
2020/12/31 05:03:03;;;;;;;4.00;3.60;;;7.70;55.90;;;;;;5030725;28;20450;-42
2020/12/31 05:05:30;;;;;;;3.47;3.13;;;7.50;56.40;;;;;;5031252;28;20997;-42
2020/12/31 05:07:57;;;;;;;5.50;3.20;;;7.30;57.10;;;;;;5030977;28;20240;-42
2020/12/31 05:10:23;;;;;;;3.97;3.57;;;7.10;57.60;;;;;;5030869;28;20487;-42
2020/12/31 05:13:07;;;;;;;5.97;3.40;;;7.20;57.80;;;;;;5030843;28;20428;-42
2020/12/31 05:15:37;;;;;;;4.10;3.60;;;7.10;57.80;;;;;;5029622;28;20204;-42
2020/12/31 05:18:27;;;;;;;2.90;2.57;;;7.10;57.80;;;;;;5030710;28;20435;-42
2020/12/31 05:20:54;;;;;;;3.00;2.70;;;6.70;58.70;;;;;;5030865;28;20442;-42
2020/12/31 05:23:25;;;;;;;4.63;3.17;;;6.50;59.00;;;;;;5030396;28;20433;-42
2020/12/31 05:25:51;;;;;;;5.10;3.63;;;6.30;59.70;;;;;;5031307;28;20844;-42
2020/12/31 05:28:37;;;;;;;3.63;3.33;;;6.20;60.40;;;;;;5029987;28;20424;-42
2020/12/31 05:31:11;;;;;;;3.60;3.30;;;6.20;60.40;;;;;;5030071;28;20280;-42
2020/12/31 05:33:38;;;;;;;4.67;3.07;;;5.90;60.30;;;;;;5030557;28;20435;-42
2020/12/31 05:36:25;;;;;;;3.23;2.93;;;5.80;61.10;;;;;;5030947;28;20946;-42
2020/12/31 05:39:02;;;;;;;2.40;2.20;;;5.90;60.50;;;;;;5030309;28;20805;-42
2020/12/31 05:41:32;;;;;;;2.43;2.23;;;6.00;59.50;;;;;;5030797;28;20515;-42
2020/12/31 05:44:04;;;;;;;3.23;2.73;;;5.90;59.30;;;;;;5029493;28;20424;-42
2020/12/31 05:46:29;;;;;;;2.87;2.67;;;5.90;58.80;;;;;;5027600;28;20432;-42
2020/12/31 05:49:00;;;;;;;2.63;2.40;;;6.00;58.50;;;;;;5029947;28;20435;-42
2020/12/31 05:51:28;;;;;;;3.00;2.70;;;6.00;57.90;;;;;;5030784;28;20251;-42
2020/12/31 05:54:03;;;;;;;3.40;2.73;;;6.00;58.00;;;;;;5030260;28;20939;-42
2020/12/31 05:56:31;;;;;;;3.07;2.57;;;6.20;57.60;;;;;;5030943;28;20497;-42
2020/12/31 05:59:16;;;;;;;3.20;2.90;;;6.20;57.20;;;;;;5030044;28;20421;-42
2020/12/31 06:01:57;;;;;;;2.63;2.43;;;6.10;57.00;;;;;;5030107;28;20427;-42
2020/12/31 06:04:43;;;;;;;2.70;2.50;;;5.90;57.20;;;;;;5030912;28;20477;-42
2020/12/31 06:07:28;;;;;;;4.00;2.00;;;5.70;57.40;;;;;;5022497;28;20581;-41
2020/12/31 06:10:05;;;;;;;2.73;2.50;;;5.70;57.50;;;;;;5028768;28;21107;-42
2020/12/31 06:12:46;;;;;;;3.27;2.50;;;5.50;57.80;;;;;;5029794;28;20779;-42
2020/12/31 06:15:17;;;;;;;2.67;2.47;;;5.50;58.30;;;;;;5030462;28;20442;-42
2020/12/31 06:17:47;;;;;;;2.70;2.50;;;5.30;58.50;;;;;;5030134;28;20443;-42
2020/12/31 06:20:14;;;;;;;2.93;2.63;;;5.30;59.00;;;;;;5030435;28;21100;-42
2020/12/31 06:23:08;;;;;;;3.47;3.17;;;5.50;58.80;;;;;;5029692;28;20446;-42
2020/12/31 06:25:40;;;;;;;2.73;2.53;;;5.50;58.30;;;;;;5030575;28;20803;-42
2020/12/31 06:28:19;;;;;;;3.97;3.30;;;5.50;58.60;;;;;;5029959;28;20420;-42
2020/12/31 06:30:55;;;;;;;4.30;3.90;;;5.50;59.00;;;;;;5029920;28;20524;-42
2020/12/31 06:33:30;;;;;;;3.10;2.90;;;5.40;59.30;;;;;;5030063;28;20607;-41
2020/12/31 06:36:01;;;;;;;4.47;3.10;;;5.50;59.70;;;;;;5028967;28;20448;-41
2020/12/31 06:38:38;;;;;;;7.87;3.13;;;5.30;60.20;;;;;;5029723;28;20842;-41
2020/12/31 06:41:25;;;;;;;3.77;3.43;;;4.80;61.70;;;;;;5032851;28;20930;-41
2020/12/31 06:44:08;;;;;;;3.20;2.90;;;4.70;63.20;;;;;;5033525;28;20529;-42
2020/12/31 06:46:45;;;;;;;4.13;3.43;;;4.90;62.50;;;;;;5030071;28;20424;-42
2020/12/31 06:49:12;;;;;;;6.30;2.93;;;4.90;61.70;;;;;;5033108;28;20428;-42
2020/12/31 06:51:38;;;;;;;3.80;3.13;;;4.60;62.00;;;;;;5033399;28;20475;-42
2020/12/31 06:54:04;;;;;;;3.63;3.33;;;4.60;62.90;;;;;;5033958;28;20432;-42
2020/12/31 06:56:50;;;;;;;3.97;2.90;;;4.60;63.80;;;;;;5033855;28;20442;-42
2020/12/31 06:59:24;;;;;;;4.00;3.60;;;4.30;64.20;;;;;;5033316;28;20192;-42
2020/12/31 07:01:50;;;;;;;4.13;3.70;;;4.30;64.80;;;;;;5031860;28;20435;-42
2020/12/31 07:04:41;;;;;;;6.73;5.07;;;4.40;64.70;;;;;;5033500;28;20926;-41
2020/12/31 07:07:18;;;;;;;4.27;3.70;;;4.40;64.00;;;;;;5032915;28;20232;-41
2020/12/31 07:09:57;;;;;;;4.90;4.10;;;4.50;63.80;;;;;;5032870;28;20577;-41
2020/12/31 07:12:38;;;;;;;4.80;3.80;;;4.60;62.90;;;;;;5033179;28;20419;-42
2020/12/31 07:15:04;;;;;;;5.57;4.40;;;4.80;62.90;;;;;;5033269;28;20973;-42
2020/12/31 07:17:34;;;;;;;7.17;4.47;;;4.70;61.70;;;;;;5033178;28;20451;-41
2020/12/31 07:20:01;;;;;;;4.07;3.63;;;4.30;62.70;;;;;;5032700;28;20428;-42
2020/12/31 07:22:28;;;;;;;5.67;4.73;;;4.30;63.40;;;;;;5032775;28;20490;-41
2020/12/31 07:25:09;;;;;;;5.77;4.30;;;4.60;62.80;;;;;;5033351;28;20800;-41
2020/12/31 07:27:37;;;;;;;5.00;4.40;;;4.60;62.10;;;;;;5032769;28;20432;-41
2020/12/31 07:30:08;;;;;;;4.40;4.00;;;4.70;61.90;;;;;;5030907;28;20478;-41
2020/12/31 07:32:59;;;;;;;4.43;3.90;;;4.70;62.20;;;;;;5032599;28;20521;-42
2020/12/31 07:35:40;;;;;;;4.53;3.60;;;4.90;62.10;;;;;;5033158;28;20432;-41
2020/12/31 07:38:09;;;;;;;7.90;5.43;;;5.10;61.00;;;;;;5032332;28;20440;-42
2020/12/31 07:40:44;;;;;;;6.03;4.93;;;5.00;61.30;;;;;;5032494;28;20428;-42
2020/12/31 07:43:15;;;;;;;4.07;3.67;;;5.10;61.30;;;;;;5032363;28;20431;-42
2020/12/31 07:45:54;;;;;;;6.23;4.50;;;5.10;61.40;;;;;;5030178;28;20479;-42
2020/12/31 07:48:21;;;;;;;4.43;4.03;;;5.00;61.30;;;;;;5032215;28;20490;-42
2020/12/31 07:50:56;;;;;;;8.70;4.70;;;4.80;62.40;;;;;;5031978;28;20498;-42
2020/12/31 07:53:21;;;;;;;4.10;3.50;;;4.90;62.40;;;;;;5032164;28;20553;-42
2020/12/31 07:55:50;;;;;;;5.83;5.23;;;5.00;62.10;;;;;;5031059;28;21438;-42
2020/12/31 07:58:20;;;;;;;6.30;5.10;;;5.30;60.80;;;;;;5031941;28;20726;-42
2020/12/31 08:00:59;;;;;;;8.50;5.30;;;5.60;60.00;;;;;;5032140;28;20432;-42
2020/12/31 08:03:26;;;;;;;6.73;4.93;;;6.00;59.00;;;;;;5031927;28;20436;-42
2020/12/31 08:06:08;;;;;;;5.60;4.90;;;6.00;58.40;;;;;;5032382;28;20443;-42
2020/12/31 08:08:34;;;;;;;5.73;4.83;;;5.90;58.60;;;;;;5031553;28;20574;-42
2020/12/31 08:11:10;;;;;;;4.83;4.33;;;6.00;58.90;;;;;;5032037;28;20567;-42
2020/12/31 08:13:36;;;;;;;4.57;3.90;;;5.60;59.00;;;;;;5031821;28;20203;-42
2020/12/31 08:16:01;;;;;;;4.90;4.40;;;5.30;59.90;;;;;;5032244;28;20425;-42
2020/12/31 08:18:27;;;;;;;6.57;4.30;;;5.10;60.90;;;;;;5031680;28;20912;-42
2020/12/31 08:20:56;;;;;;;4.27;3.60;;;5.00;61.60;;;;;;5031735;28;20645;-42
2020/12/31 08:23:27;;;;;;;6.33;4.50;;;5.00;62.00;;;;;;5030047;28;20481;-42
2020/12/31 08:25:56;;;;;;;7.40;4.40;;;5.10;61.90;;;;;;5032125;28;20783;-42
2020/12/31 08:28:22;;;;;;;6.23;4.30;;;5.10;62.00;;;;;;5031577;28;20452;-42
2020/12/31 08:30:48;;;;;;;5.97;4.40;;;5.00;62.50;;;;;;5031878;28;20562;-42
2020/12/31 08:33:22;;;;;;;5.53;4.30;;;5.00;62.40;;;;;;5031614;28;20428;-42
2020/12/31 08:35:49;;;;;;;4.73;4.33;;;5.10;62.40;;;;;;5031946;28;20424;-42
2020/12/31 08:38:19;;;;;;;6.17;4.50;;;5.10;62.40;;;;;;5031627;28;20839;-42
2020/12/31 08:40:46;;;;;;;4.97;4.57;;;5.10;62.20;;;;;;5031791;28;20527;-42
2020/12/31 08:43:30;;;;;;;5.77;5.17;;;5.30;62.30;;;;;;5031214;28;20428;-42
2020/12/31 08:45:57;;;;;;;5.50;4.47;;;5.50;61.30;;;;;;5029491;28;20454;-42
2020/12/31 08:48:25;;;;;;;5.67;4.70;;;5.40;61.10;;;;;;5030928;28;20420;-42
2020/12/31 08:51:13;;;;;;;6.20;5.20;;;5.60;61.10;;;;;;5030131;28;20487;-42
2020/12/31 08:53:51;;;;;;;6.83;5.07;;;5.50;60.50;;;;;;5030839;28;20958;-42
2020/12/31 08:56:18;;;;;;;7.00;5.13;;;5.50;60.60;;;;;;5031588;28;20442;-42
2020/12/31 08:58:44;;;;;;;5.77;5.17;;;5.60;61.10;;;;;;5030567;28;20436;-42
2020/12/31 09:01:26;;;;;;;6.93;5.20;;;5.70;60.60;;;;;;5031511;28;20431;-42
2020/12/31 09:04:06;;;;;;;5.87;5.20;;;5.90;60.30;;;;;;5029880;28;20197;-42
2020/12/31 09:06:32;;;;;;;5.93;5.03;;;6.10;60.00;;;;;;5031277;28;20459;-42
2020/12/31 09:08:57;;;;;;;6.10;5.30;;;6.20;59.70;;;;;;5030728;28;20483;-41
2020/12/31 09:11:30;;;;;;;5.93;5.33;;;6.20;59.30;;;;;;5031230;28;20279;-42
2020/12/31 09:14:06;;;;;;;5.57;4.73;;;6.10;59.40;;;;;;5030773;28;20193;-42
2020/12/31 09:16:32;;;;;;;5.97;5.20;;;6.30;59.50;;;;;;5029239;28;20958;-42
2020/12/31 09:19:00;;;;;;;5.43;4.87;;;6.20;59.10;;;;;;5030582;28;20420;-42
2020/12/31 09:21:29;;;;;;;6.90;5.30;;;6.30;59.60;;;;;;5031074;28;20196;-42
2020/12/31 09:24:11;;;;;;;9.00;5.73;;;6.30;59.10;;;;;;5030500;28;20481;-42
2020/12/31 09:26:36;;;;;;;6.30;4.73;;;6.30;59.10;;;;;;5028989;28;20574;-46
2020/12/31 09:29:07;;;;;;;5.80;5.20;;;6.40;59.10;;;;;;5030422;28;20778;-43
2020/12/31 09:31:37;;;;;;;7.00;5.67;;;6.60;59.30;;;;;;5032846;28;20492;-42
2020/12/31 09:34:03;;;;;;;6.50;5.10;;;6.70;59.40;;;;;;5011951;28;20440;-41
2020/12/31 09:36:29;;;;;;;6.30;5.70;;;6.70;59.40;;;;;;5045775;28;20487;-41
2020/12/31 09:38:54;;;;;;;6.37;5.67;;;6.80;58.60;;;;;;5040088;28;20207;-41
2020/12/31 09:41:20;;;;;;;7.77;6.07;;;6.80;58.40;;;;;;5039766;28;20186;-42
2020/12/31 09:43:46;;;;;;;7.30;5.70;;;6.80;58.90;;;;;;5034644;28;20192;-42
2020/12/31 09:46:17;;;;;;;7.13;6.00;;;6.80;59.00;;;;;;5041339;28;20276;-42
2020/12/31 09:48:43;;;;;;;7.57;6.20;;;6.80;59.00;;;;;;5030650;28;20993;-42
2020/12/31 09:51:09;;;;;;;8.13;6.67;;;6.90;58.50;;;;;;5032229;28;20519;-42
2020/12/31 09:53:35;;;;;;;8.53;6.70;;;7.00;58.40;;;;;;5030046;28;20255;-42
2020/12/31 09:56:01;;;;;;;9.17;7.33;;;7.00;58.20;;;;;;5029696;28;20475;-42
2020/12/31 09:58:26;;;;;;;8.57;7.73;;;7.20;58.30;;;;;;5030643;28;20269;-42
2020/12/31 10:00:52;;;;;;;8.70;6.93;;;7.40;59.00;;;;;;5042355;28;20197;-42
2020/12/31 10:03:17;;;;;;;7.73;6.57;;;7.60;58.10;;;;;;5045380;28;20564;-42
2020/12/31 10:05:45;;;;;;;9.13;7.00;;;7.70;57.50;;;;;;5033640;28;20295;-42
2020/12/31 10:08:10;;;;;;;7.60;6.67;;;7.80;57.50;;;;;;5023530;28;20229;-42
2020/12/31 10:10:36;;;;;;;8.40;7.00;;;7.70;57.30;;;;;;5022804;28;20847;-42
2020/12/31 10:13:02;;;;;;;7.67;6.63;;;7.40;56.70;;;;;;5019410;28;20186;-42
2020/12/31 10:15:27;;;;;;;6.90;5.70;;;7.40;57.10;;;;;;5031235;28;20637;-42
2020/12/31 10:17:54;;;;;;;7.17;6.10;;;7.40;57.40;;;;;;5044272;28;20197;-42
2020/12/31 10:20:19;;;;;;;7.27;5.83;;;7.60;57.10;;;;;;5045204;28;20189;-42
2020/12/31 10:22:45;;;;;;;6.77;6.13;;;7.60;57.10;;;;;;5036192;28;20506;-42
2020/12/31 10:25:10;;;;;;;7.70;6.70;;;7.70;56.80;;;;;;5032570;28;20199;-42
2020/12/31 10:27:36;;;;;;;8.87;6.87;;;7.70;57.10;;;;;;5039975;28;20189;-42
2020/12/31 10:30:04;;;;;;;7.80;6.23;;;7.90;56.70;;;;;;5037563;28;20227;-42
2020/12/31 10:32:29;;;;;;;6.50;5.80;;;7.80;55.60;;;;;;5042893;28;20206;-42
2020/12/31 10:34:55;;;;;;;9.30;6.53;;;8.10;55.40;;;;;;5033437;28;20449;-42
2020/12/31 10:37:20;;;;;;;6.60;6.00;;;8.20;55.20;;;;;;5031676;28;20198;-42
2020/12/31 10:39:46;;;;;;;7.10;6.40;;;8.40;55.40;;;;;;5027210;28;20264;-42
2020/12/31 10:42:11;;;;;;;7.03;6.10;;;8.40;55.20;;;;;;5031268;28;20193;-42
2020/12/31 10:44:37;;;;;;;6.50;5.50;;;8.50;55.40;;;;;;5029347;28;20247;-42
2020/12/31 10:47:03;;;;;;;9.43;6.27;;;8.50;55.20;;;;;;5025179;28;20703;-42
2020/12/31 10:49:28;;;;;;;8.50;6.47;;;8.60;55.70;;;;;;5027021;28;20204;-42
2020/12/31 10:51:54;;;;;;;8.30;6.70;;;8.30;55.90;;;;;;5027780;28;20188;-42
2020/12/31 10:54:19;;;;;;;8.67;7.73;;;8.40;55.80;;;;;;5034595;28;20204;-42
2020/12/31 10:56:47;;;;;;;12.50;5.70;;;8.20;55.80;;;;;;5023897;28;20271;-42
2020/12/31 10:59:13;;;;;;;6.60;5.73;;;8.10;55.90;;;;;;5050519;28;20614;-42
2020/12/31 11:01:39;;;;;;;7.27;6.20;;;8.20;55.80;;;;;;5041710;28;20518;-43
2020/12/31 11:04:05;;;;;;;7.50;6.10;;;8.40;55.60;;;;;;5025095;28;20189;-42
2020/12/31 11:06:30;;;;;;;7.23;6.27;;;8.50;55.40;;;;;;5023310;28;20194;-42
2020/12/31 11:08:57;;;;;;;8.67;6.67;;;8.30;55.20;;;;;;5032432;28;20638;-42
2020/12/31 11:11:24;;;;;;;7.90;7.10;;;8.30;55.60;;;;;;5032430;28;20275;-42
2020/12/31 11:13:51;;;;;;;10.60;8.50;;;8.20;55.80;;;;;;5035003;28;20817;-42
2020/12/31 11:16:17;;;;;;;7.67;6.50;;;8.00;56.90;;;;;;5049079;28;20477;-43
2020/12/31 11:18:43;;;;;;;6.50;5.90;;;7.90;56.90;;;;;;5043917;28;20439;-42
2020/12/31 11:21:09;;;;;;;8.70;5.90;;;7.80;57.40;;;;;;5025161;28;20429;-42
2020/12/31 11:23:35;;;;;;;7.90;5.70;;;7.90;57.90;;;;;;5039127;28;20522;-42
2020/12/31 11:26:01;;;;;;;6.17;5.57;;;8.00;58.00;;;;;;5038839;28;20521;-42
2020/12/31 11:28:27;;;;;;;5.73;5.13;;;8.30;58.00;;;;;;5026510;28;20624;-42
2020/12/31 11:30:53;;;;;;;5.93;5.10;;;8.40;58.10;;;;;;5032394;28;20558;-42
2020/12/31 11:33:19;;;;;;;6.80;5.30;;;8.20;58.00;;;;;;5037430;28;20204;-42
2020/12/31 11:35:44;;;;;;;6.00;5.40;;;8.40;58.30;;;;;;5041869;28;20698;-42
2020/12/31 11:41:32;;;;;;;6.00;5.00;;;8.30;58.40;;;;;;5133054;23;20589;-42
2020/12/31 11:43:58;;;;;;;8.63;5.80;;;8.20;58.90;;;;;;5052082;28;20439;-42
2020/12/31 11:46:23;;;;;;;5.60;5.10;;;8.50;58.70;;;;;;5059367;28;20219;-42
2020/12/31 11:48:49;;;;;;;7.30;5.30;;;8.50;58.70;;;;;;5050622;28;20191;-42
2020/12/31 11:51:15;;;;;;;6.40;5.50;;;8.30;57.80;;;;;;5051706;28;20216;-42
2020/12/31 11:53:40;;;;;;;5.40;4.70;;;8.10;58.40;;;;;;5051955;28;20670;-42
2020/12/31 11:56:07;;;;;;;6.03;4.67;;;8.00;58.60;;;;;;5050919;28;20514;-42
2020/12/31 11:58:33;;;;;;;5.23;4.70;;;8.10;58.70;;;;;;5054523;28;20559;-42
2020/12/31 12:00:59;;;;;;;5.00;4.07;;;8.10;58.40;;;;;;5051528;28;20427;-42
2020/12/31 12:03:25;;;;;;;4.80;4.30;;;7.80;58.40;;;;;;5052391;28;20573;-42
2020/12/31 12:05:52;;;;;;;6.13;4.70;;;7.70;59.00;;;;;;5041624;28;20423;-42
2020/12/31 12:08:18;;;;;;;6.37;4.70;;;7.80;59.20;;;;;;5055141;28;20431;-42
2020/12/31 12:10:47;;;;;;;5.80;5.23;;;7.70;59.20;;;;;;5051500;28;20522;-42
2020/12/31 12:13:13;;;;;;;5.70;4.47;;;7.90;60.10;;;;;;5055924;28;20435;-42
2020/12/31 12:15:43;;;;;;;6.50;4.53;;;8.10;59.40;;;;;;5056516;28;20491;-42
2020/12/31 12:18:09;;;;;;;4.87;4.47;;;8.10;59.00;;;;;;5053697;28;20200;-42
2020/12/31 12:20:35;;;;;;;5.23;4.37;;;8.30;58.50;;;;;;5065175;28;20433;-42
2020/12/31 12:23:00;;;;;;;5.23;4.30;;;8.20;59.10;;;;;;5060423;28;20525;-42
2020/12/31 12:25:26;;;;;;;5.10;4.60;;;8.20;58.60;;;;;;5056354;28;20555;-42
2020/12/31 12:27:51;;;;;;;4.80;4.23;;;8.30;58.20;;;;;;5054313;28;20184;-42
2020/12/31 12:30:18;;;;;;;5.70;5.07;;;8.00;58.30;;;;;;5052259;28;20319;-42
2020/12/31 12:32:45;;;;;;;5.53;4.47;;;7.80;59.10;;;;;;5060825;28;20200;-42
2020/12/31 12:35:11;;;;;;;5.60;4.60;;;8.00;59.20;;;;;;5051849;28;20438;-42
2020/12/31 12:37:37;;;;;;;5.20;4.70;;;8.20;58.10;;;;;;5050494;28;20471;-42
2020/12/31 12:40:06;;;;;;;5.50;5.00;;;8.50;57.60;;;;;;5050965;28;20463;-42
2020/12/31 12:42:33;;;;;;;4.27;3.87;;;8.60;57.00;;;;;;5050358;28;20185;-42
2020/12/31 12:45:00;;;;;;;5.13;4.60;;;8.60;57.00;;;;;;5051232;28;20453;-42
2020/12/31 12:47:25;;;;;;;4.43;4.03;;;8.30;56.50;;;;;;5053767;28;20925;-42
2020/12/31 12:49:51;;;;;;;4.67;4.20;;;8.30;57.30;;;;;;5052614;28;20439;-42
2020/12/31 12:52:16;;;;;;;4.80;4.30;;;8.60;57.00;;;;;;5054296;28;20547;-45
2020/12/31 12:54:42;;;;;;;6.10;4.47;;;8.40;56.60;;;;;;5058218;28;20230;-42
2020/12/31 12:57:07;;;;;;;5.00;4.17;;;8.50;56.90;;;;;;5052501;28;20208;-42
2020/12/31 12:59:33;;;;;;;4.97;4.33;;;8.40;56.50;;;;;;5051120;28;20361;-42
2020/12/31 13:01:59;;;;;;;5.33;4.90;;;8.50;57.10;;;;;;5052703;28;20195;-42
2020/12/31 13:04:24;;;;;;;4.90;4.40;;;8.40;57.00;;;;;;5062017;28;20192;-42
2020/12/31 13:06:50;;;;;;;4.97;4.47;;;8.30;57.80;;;;;;5050413;28;20242;-42